sensor_id;sensor_type;location;lat;lon;timestamp;temperature;humidity
33988;DHT22;37428;53.580;-1.666;2022-12-07T00:01:36;2.40;85.90
33988;DHT22;37428;53.580;-1.666;2022-12-07T00:04:40;2.40;85.90
33988;DHT22;37428;53.580;-1.666;2022-12-07T00:07:51;2.40;85.70
33988;DHT22;37428;53.580;-1.666;2022-12-07T00:10:53;2.40;85.40
33988;DHT22;37428;53.580;-1.666;2022-12-07T00:13:58;2.30;85.30
33988;DHT22;37428;53.580;-1.666;2022-12-07T00:17:01;2.30;84.70
33988;DHT22;37428;53.580;-1.666;2022-12-07T00:20:05;2.20;84.50
33988;DHT22;37428;53.580;-1.666;2022-12-07T00:23:11;2.20;84.90
33988;DHT22;37428;53.580;-1.666;2022-12-07T00:26:16;2.20;85.00
33988;DHT22;37428;53.580;-1.666;2022-12-07T00:29:20;2.20;85.40
33988;DHT22;37428;53.580;-1.666;2022-12-07T00:32:23;2.20;85.20
33988;DHT22;37428;53.580;-1.666;2022-12-07T00:35:26;2.20;84.90
33988;DHT22;37428;53.580;-1.666;2022-12-07T00:38:32;2.10;84.60
33988;DHT22;37428;53.580;-1.666;2022-12-07T00:41:35;2.10;84.60
33988;DHT22;37428;53.580;-1.666;2022-12-07T00:44:37;2.10;84.40
33988;DHT22;37428;53.580;-1.666;2022-12-07T00:47:53;2.00;84.90
33988;DHT22;37428;53.580;-1.666;2022-12-07T00:50:56;2.00;85.20
33988;DHT22;37428;53.580;-1.666;2022-12-07T00:53:59;2.00;85.00
33988;DHT22;37428;53.580;-1.666;2022-12-07T00:57:02;2.00;84.90
33988;DHT22;37428;53.580;-1.666;2022-12-07T01:00:05;2.00;84.80
33988;DHT22;37428;53.580;-1.666;2022-12-07T01:03:10;2.00;84.20
33988;DHT22;37428;53.580;-1.666;2022-12-07T01:06:23;2.00;84.80
33988;DHT22;37428;53.580;-1.666;2022-12-07T01:09:46;2.00;84.90
33988;DHT22;37428;53.580;-1.666;2022-12-07T01:12:53;2.00;85.10
33988;DHT22;37428;53.580;-1.666;2022-12-07T01:15:57;2.00;84.60
33988;DHT22;37428;53.580;-1.666;2022-12-07T01:19:02;2.00;84.50
33988;DHT22;37428;53.580;-1.666;2022-12-07T01:22:11;2.00;84.10
33988;DHT22;37428;53.580;-1.666;2022-12-07T01:25:30;2.00;83.70
33988;DHT22;37428;53.580;-1.666;2022-12-07T01:28:33;2.00;83.30
33988;DHT22;37428;53.580;-1.666;2022-12-07T01:31:35;1.90;83.40
33988;DHT22;37428;53.580;-1.666;2022-12-07T01:34:38;1.90;83.60
33988;DHT22;37428;53.580;-1.666;2022-12-07T01:37:40;1.90;83.80
33988;DHT22;37428;53.580;-1.666;2022-12-07T01:40:55;1.80;83.50
33988;DHT22;37428;53.580;-1.666;2022-12-07T01:44:13;1.80;83.80
33988;DHT22;37428;53.580;-1.666;2022-12-07T01:47:16;1.80;83.80
33988;DHT22;37428;53.580;-1.666;2022-12-07T01:50:18;1.80;84.00
33988;DHT22;37428;53.580;-1.666;2022-12-07T01:53:21;1.80;84.00
33988;DHT22;37428;53.580;-1.666;2022-12-07T01:56:33;1.80;83.70
33988;DHT22;37428;53.580;-1.666;2022-12-07T01:59:37;1.80;83.30
33988;DHT22;37428;53.580;-1.666;2022-12-07T02:02:49;1.80;83.00
33988;DHT22;37428;53.580;-1.666;2022-12-07T02:06:01;1.80;82.90
33988;DHT22;37428;53.580;-1.666;2022-12-07T02:09:07;1.70;82.90
33988;DHT22;37428;53.580;-1.666;2022-12-07T02:12:11;1.70;82.70
33988;DHT22;37428;53.580;-1.666;2022-12-07T02:15:13;1.70;83.20
33988;DHT22;37428;53.580;-1.666;2022-12-07T02:18:23;1.70;83.30
33988;DHT22;37428;53.580;-1.666;2022-12-07T02:21:40;1.70;83.00
33988;DHT22;37428;53.580;-1.666;2022-12-07T02:24:49;1.70;83.00
33988;DHT22;37428;53.580;-1.666;2022-12-07T02:28:00;1.70;83.00
33988;DHT22;37428;53.580;-1.666;2022-12-07T02:31:11;1.60;82.40
33988;DHT22;37428;53.580;-1.666;2022-12-07T02:34:38;1.60;82.90
33988;DHT22;37428;53.580;-1.666;2022-12-07T02:37:53;1.50;82.60
33988;DHT22;37428;53.580;-1.666;2022-12-07T02:41:02;1.50;82.90
33988;DHT22;37428;53.580;-1.666;2022-12-07T02:44:09;1.50;82.40
33988;DHT22;37428;53.580;-1.666;2022-12-07T02:47:19;1.50;82.70
33988;DHT22;37428;53.580;-1.666;2022-12-07T02:50:35;1.40;82.80
33988;DHT22;37428;53.580;-1.666;2022-12-07T02:53:41;1.40;82.80
33988;DHT22;37428;53.580;-1.666;2022-12-07T02:57:01;1.30;82.40
33988;DHT22;37428;53.580;-1.666;2022-12-07T03:00:11;1.30;82.80
33988;DHT22;37428;53.580;-1.666;2022-12-07T03:03:46;1.20;83.00
33988;DHT22;37428;53.580;-1.666;2022-12-07T03:07:14;1.10;82.80
33988;DHT22;37428;53.580;-1.666;2022-12-07T03:10:27;1.00;83.30
33988;DHT22;37428;53.580;-1.666;2022-12-07T03:13:45;1.00;83.30
33988;DHT22;37428;53.580;-1.666;2022-12-07T03:17:00;1.00;83.80
33988;DHT22;37428;53.580;-1.666;2022-12-07T03:20:16;1.00;83.50
33988;DHT22;37428;53.580;-1.666;2022-12-07T03:23:38;1.00;83.70
33988;DHT22;37428;53.580;-1.666;2022-12-07T03:26:54;1.00;83.80
33988;DHT22;37428;53.580;-1.666;2022-12-07T03:30:03;1.00;83.90
33988;DHT22;37428;53.580;-1.666;2022-12-07T03:33:13;1.00;83.60
33988;DHT22;37428;53.580;-1.666;2022-12-07T03:36:35;1.10;83.40
33988;DHT22;37428;53.580;-1.666;2022-12-07T03:40:10;0.90;83.20
33988;DHT22;37428;53.580;-1.666;2022-12-07T03:43:16;0.90;83.50
33988;DHT22;37428;53.580;-1.666;2022-12-07T03:46:42;0.90;83.50
33988;DHT22;37428;53.580;-1.666;2022-12-07T03:49:50;0.90;83.50
33988;DHT22;37428;53.580;-1.666;2022-12-07T03:53:18;0.80;83.40
33988;DHT22;37428;53.580;-1.666;2022-12-07T03:56:22;0.80;83.60
33988;DHT22;37428;53.580;-1.666;2022-12-07T03:59:55;0.80;83.50
33988;DHT22;37428;53.580;-1.666;2022-12-07T04:03:14;0.80;83.50
33988;DHT22;37428;53.580;-1.666;2022-12-07T04:06:40;0.80;83.40
33988;DHT22;37428;53.580;-1.666;2022-12-07T04:09:57;0.80;83.30
33988;DHT22;37428;53.580;-1.666;2022-12-07T04:13:03;0.80;83.30
33988;DHT22;37428;53.580;-1.666;2022-12-07T04:16:43;0.80;83.70
33988;DHT22;37428;53.580;-1.666;2022-12-07T04:23:18;0.70;83.30
33988;DHT22;37428;53.580;-1.666;2022-12-07T04:26:35;0.70;83.30
33988;DHT22;37428;53.580;-1.666;2022-12-07T04:29:51;0.80;83.30
33988;DHT22;37428;53.580;-1.666;2022-12-07T04:32:53;0.80;82.90
33988;DHT22;37428;53.580;-1.666;2022-12-07T04:35:55;0.70;82.70
33988;DHT22;37428;53.580;-1.666;2022-12-07T04:38:57;0.80;82.80
33988;DHT22;37428;53.580;-1.666;2022-12-07T04:42:02;0.70;82.90
33988;DHT22;37428;53.580;-1.666;2022-12-07T04:45:22;0.70;83.30
33988;DHT22;37428;53.580;-1.666;2022-12-07T04:48:24;0.80;83.10
33988;DHT22;37428;53.580;-1.666;2022-12-07T04:51:30;0.80;83.10
33988;DHT22;37428;53.580;-1.666;2022-12-07T04:54:53;0.80;82.80
33988;DHT22;37428;53.580;-1.666;2022-12-07T04:58:09;0.80;83.20
33988;DHT22;37428;53.580;-1.666;2022-12-07T05:01:22;0.80;83.00
33988;DHT22;37428;53.580;-1.666;2022-12-07T05:04:25;0.80;83.10
33988;DHT22;37428;53.580;-1.666;2022-12-07T05:07:44;0.80;83.00
33988;DHT22;37428;53.580;-1.666;2022-12-07T05:10:54;0.80;82.70
33988;DHT22;37428;53.580;-1.666;2022-12-07T05:14:22;0.80;82.50
33988;DHT22;37428;53.580;-1.666;2022-12-07T05:17:26;0.70;82.70
33988;DHT22;37428;53.580;-1.666;2022-12-07T05:20:54;0.70;82.80
33988;DHT22;37428;53.580;-1.666;2022-12-07T05:24:09;0.70;82.70
33988;DHT22;37428;53.580;-1.666;2022-12-07T05:28:00;0.70;82.50
33988;DHT22;37428;53.580;-1.666;2022-12-07T05:31:26;0.60;82.40
33988;DHT22;37428;53.580;-1.666;2022-12-07T05:34:29;0.60;82.90
33988;DHT22;37428;53.580;-1.666;2022-12-07T05:37:48;0.60;83.00
33988;DHT22;37428;53.580;-1.666;2022-12-07T05:44:52;0.70;83.00
33988;DHT22;37428;53.580;-1.666;2022-12-07T05:51:58;0.60;82.70
33988;DHT22;37428;53.580;-1.666;2022-12-07T05:55:13;0.60;82.60
33988;DHT22;37428;53.580;-1.666;2022-12-07T05:58:18;0.50;82.80
33988;DHT22;37428;53.580;-1.666;2022-12-07T06:01:46;0.50;82.80
33988;DHT22;37428;53.580;-1.666;2022-12-07T06:05:32;0.40;82.90
33988;DHT22;37428;53.580;-1.666;2022-12-07T06:08:45;0.40;83.10
33988;DHT22;37428;53.580;-1.666;2022-12-07T06:12:08;0.30;82.70
33988;DHT22;37428;53.580;-1.666;2022-12-07T06:15:30;0.20;83.20
33988;DHT22;37428;53.580;-1.666;2022-12-07T06:18:49;0.20;83.90
33988;DHT22;37428;53.580;-1.666;2022-12-07T06:22:10;0.20;83.70
33988;DHT22;37428;53.580;-1.666;2022-12-07T06:25:29;0.30;84.20
33988;DHT22;37428;53.580;-1.666;2022-12-07T06:28:37;0.30;83.70
33988;DHT22;37428;53.580;-1.666;2022-12-07T06:32:05;0.30;83.20
33988;DHT22;37428;53.580;-1.666;2022-12-07T06:35:08;0.30;83.30
33988;DHT22;37428;53.580;-1.666;2022-12-07T06:38:31;0.20;83.30
33988;DHT22;37428;53.580;-1.666;2022-12-07T06:41:56;0.20;83.60
33988;DHT22;37428;53.580;-1.666;2022-12-07T06:45:30;0.20;83.50
33988;DHT22;37428;53.580;-1.666;2022-12-07T06:48:58;0.20;83.50
33988;DHT22;37428;53.580;-1.666;2022-12-07T06:53:20;0.20;83.60
33988;DHT22;37428;53.580;-1.666;2022-12-07T07:00:49;0.20;83.30
33988;DHT22;37428;53.580;-1.666;2022-12-07T07:04:17;0.10;83.20
33988;DHT22;37428;53.580;-1.666;2022-12-07T07:07:19;0.10;83.80
33988;DHT22;37428;53.580;-1.666;2022-12-07T07:10:42;0.20;84.10
33988;DHT22;37428;53.580;-1.666;2022-12-07T07:13:52;0.20;83.80
33988;DHT22;37428;53.580;-1.666;2022-12-07T07:17:06;0.20;84.20
33988;DHT22;37428;53.580;-1.666;2022-12-07T07:20:27;0.30;83.70
33988;DHT22;37428;53.580;-1.666;2022-12-07T07:23:52;0.20;83.40
33988;DHT22;37428;53.580;-1.666;2022-12-07T07:27:05;0.10;83.10
33988;DHT22;37428;53.580;-1.666;2022-12-07T07:30:14;0.10;83.70
33988;DHT22;37428;53.580;-1.666;2022-12-07T07:33:20;0.10;84.00
33988;DHT22;37428;53.580;-1.666;2022-12-07T07:39:58;0.10;83.80
33988;DHT22;37428;53.580;-1.666;2022-12-07T07:43:23;0.10;83.70
33988;DHT22;37428;53.580;-1.666;2022-12-07T07:46:36;0.10;83.50
33988;DHT22;37428;53.580;-1.666;2022-12-07T07:49:39;0.10;83.00
33988;DHT22;37428;53.580;-1.666;2022-12-07T07:52:51;0.00;83.40
33988;DHT22;37428;53.580;-1.666;2022-12-07T07:56:13;0.10;83.90
33988;DHT22;37428;53.580;-1.666;2022-12-07T07:59:18;0.10;83.90
33988;DHT22;37428;53.580;-1.666;2022-12-07T08:02:22;0.00;83.40
33988;DHT22;37428;53.580;-1.666;2022-12-07T08:05:52;0.10;83.70
33988;DHT22;37428;53.580;-1.666;2022-12-07T08:09:02;0.00;83.80
33988;DHT22;37428;53.580;-1.666;2022-12-07T08:12:47;0.00;83.40
33988;DHT22;37428;53.580;-1.666;2022-12-07T08:16:08;0.10;83.80
33988;DHT22;37428;53.580;-1.666;2022-12-07T08:19:14;0.10;83.30
33988;DHT22;37428;53.580;-1.666;2022-12-07T08:24:19;0.10;83.80
33988;DHT22;37428;53.580;-1.666;2022-12-07T08:26:13;0.10;83.80
33988;DHT22;37428;53.580;-1.666;2022-12-07T08:29:44;0.10;83.20
33988;DHT22;37428;53.580;-1.666;2022-12-07T08:33:18;0.20;83.30
33988;DHT22;37428;53.580;-1.666;2022-12-07T08:36:47;0.20;83.10
33988;DHT22;37428;53.580;-1.666;2022-12-07T08:39:55;0.20;82.80
33988;DHT22;37428;53.580;-1.666;2022-12-07T08:42:57;0.20;82.90
33988;DHT22;37428;53.580;-1.666;2022-12-07T08:46:06;0.20;82.50
33988;DHT22;37428;53.580;-1.666;2022-12-07T08:49:15;0.10;82.90
33988;DHT22;37428;53.580;-1.666;2022-12-07T08:52:28;0.10;83.40
33988;DHT22;37428;53.580;-1.666;2022-12-07T08:55:53;0.00;83.10
33988;DHT22;37428;53.580;-1.666;2022-12-07T08:59:21;0.00;83.00
33988;DHT22;37428;53.580;-1.666;2022-12-07T09:02:24;0.00;83.40
33988;DHT22;37428;53.580;-1.666;2022-12-07T09:05:32;0.00;83.20
33988;DHT22;37428;53.580;-1.666;2022-12-07T09:08:40;0.10;83.40
33988;DHT22;37428;53.580;-1.666;2022-12-07T09:12:06;0.10;83.30
33988;DHT22;37428;53.580;-1.666;2022-12-07T09:15:16;0.20;83.20
33988;DHT22;37428;53.580;-1.666;2022-12-07T09:18:22;0.20;83.30
33988;DHT22;37428;53.580;-1.666;2022-12-07T09:21:43;0.20;83.10
33988;DHT22;37428;53.580;-1.666;2022-12-07T09:24:46;0.10;82.70
33988;DHT22;37428;53.580;-1.666;2022-12-07T09:28:05;0.10;82.90
33988;DHT22;37428;53.580;-1.666;2022-12-07T09:31:08;0.20;83.90
33988;DHT22;37428;53.580;-1.666;2022-12-07T09:34:13;0.20;83.10
33988;DHT22;37428;53.580;-1.666;2022-12-07T09:37:16;0.30;82.80
33988;DHT22;37428;53.580;-1.666;2022-12-07T09:40:22;0.20;82.80
33988;DHT22;37428;53.580;-1.666;2022-12-07T09:43:34;0.20;82.70
33988;DHT22;37428;53.580;-1.666;2022-12-07T09:46:39;0.20;83.40
33988;DHT22;37428;53.580;-1.666;2022-12-07T09:49:41;0.20;83.10
33988;DHT22;37428;53.580;-1.666;2022-12-07T09:52:44;0.30;83.40
33988;DHT22;37428;53.580;-1.666;2022-12-07T09:55:48;0.40;82.60
33988;DHT22;37428;53.580;-1.666;2022-12-07T09:58:56;0.50;82.70
33988;DHT22;37428;53.580;-1.666;2022-12-07T10:02:22;0.70;82.40
33988;DHT22;37428;53.580;-1.666;2022-12-07T10:05:28;0.90;81.30
33988;DHT22;37428;53.580;-1.666;2022-12-07T10:08:32;1.10;80.80
33988;DHT22;37428;53.580;-1.666;2022-12-07T10:11:34;1.20;80.30
33988;DHT22;37428;53.580;-1.666;2022-12-07T10:14:40;1.40;80.40
33988;DHT22;37428;53.580;-1.666;2022-12-07T10:17:52;1.50;79.20
33988;DHT22;37428;53.580;-1.666;2022-12-07T10:21:01;1.70;79.00
33988;DHT22;37428;53.580;-1.666;2022-12-07T10:24:05;1.80;78.10
33988;DHT22;37428;53.580;-1.666;2022-12-07T10:27:19;1.90;77.80
33988;DHT22;37428;53.580;-1.666;2022-12-07T10:30:24;2.00;77.10
33988;DHT22;37428;53.580;-1.666;2022-12-07T10:33:32;2.10;76.50
33988;DHT22;37428;53.580;-1.666;2022-12-07T10:36:37;2.10;76.40
33988;DHT22;37428;53.580;-1.666;2022-12-07T10:39:42;2.20;76.20
33988;DHT22;37428;53.580;-1.666;2022-12-07T10:43:01;2.20;75.80
33988;DHT22;37428;53.580;-1.666;2022-12-07T10:46:39;2.30;75.80
33988;DHT22;37428;53.580;-1.666;2022-12-07T10:53:48;2.40;75.10
33988;DHT22;37428;53.580;-1.666;2022-12-07T10:57:05;2.40;75.70
33988;DHT22;37428;53.580;-1.666;2022-12-07T11:00:17;2.30;75.50
33988;DHT22;37428;53.580;-1.666;2022-12-07T11:03:37;2.30;75.70
33988;DHT22;37428;53.580;-1.666;2022-12-07T11:06:48;2.20;75.80
33988;DHT22;37428;53.580;-1.666;2022-12-07T11:10:02;2.20;76.20
33988;DHT22;37428;53.580;-1.666;2022-12-07T11:13:33;2.10;76.40
33988;DHT22;37428;53.580;-1.666;2022-12-07T11:16:52;2.10;76.90
33988;DHT22;37428;53.580;-1.666;2022-12-07T11:20:11;2.10;76.80
33988;DHT22;37428;53.580;-1.666;2022-12-07T11:23:24;2.10;77.00
33988;DHT22;37428;53.580;-1.666;2022-12-07T11:26:52;2.10;76.90
33988;DHT22;37428;53.580;-1.666;2022-12-07T11:30:08;2.00;76.40
33988;DHT22;37428;53.580;-1.666;2022-12-07T11:33:17;2.10;76.60
33988;DHT22;37428;53.580;-1.666;2022-12-07T11:36:33;2.00;76.60
33988;DHT22;37428;53.580;-1.666;2022-12-07T11:39:41;2.00;76.60
33988;DHT22;37428;53.580;-1.666;2022-12-07T11:42:52;2.00;76.50
33988;DHT22;37428;53.580;-1.666;2022-12-07T11:46:00;2.00;76.40
33988;DHT22;37428;53.580;-1.666;2022-12-07T11:49:11;2.00;76.50
33988;DHT22;37428;53.580;-1.666;2022-12-07T11:52:22;2.10;75.90
33988;DHT22;37428;53.580;-1.666;2022-12-07T11:55:30;2.00;76.60
33988;DHT22;37428;53.580;-1.666;2022-12-07T11:58:53;2.10;76.80
33988;DHT22;37428;53.580;-1.666;2022-12-07T12:02:02;2.00;76.40
33988;DHT22;37428;53.580;-1.666;2022-12-07T12:05:16;2.10;76.80
33988;DHT22;37428;53.580;-1.666;2022-12-07T12:08:26;2.10;76.40
33988;DHT22;37428;53.580;-1.666;2022-12-07T12:11:41;2.10;75.70
33988;DHT22;37428;53.580;-1.666;2022-12-07T12:14:57;2.10;76.30
33988;DHT22;37428;53.580;-1.666;2022-12-07T12:18:12;2.20;75.70
33988;DHT22;37428;53.580;-1.666;2022-12-07T12:21:20;2.10;76.30
33988;DHT22;37428;53.580;-1.666;2022-12-07T12:24:28;2.20;75.90
33988;DHT22;37428;53.580;-1.666;2022-12-07T12:27:35;2.20;76.40
33988;DHT22;37428;53.580;-1.666;2022-12-07T12:30:39;2.20;76.10
33988;DHT22;37428;53.580;-1.666;2022-12-07T12:33:46;2.20;75.50
33988;DHT22;37428;53.580;-1.666;2022-12-07T12:36:50;2.30;75.90
33988;DHT22;37428;53.580;-1.666;2022-12-07T12:43:50;2.40;75.00
33988;DHT22;37428;53.580;-1.666;2022-12-07T12:46:54;2.40;75.40
33988;DHT22;37428;53.580;-1.666;2022-12-07T12:50:23;2.40;75.20
33988;DHT22;37428;53.580;-1.666;2022-12-07T12:53:26;2.50;75.10
33988;DHT22;37428;53.580;-1.666;2022-12-07T12:56:39;2.60;73.40
33988;DHT22;37428;53.580;-1.666;2022-12-07T12:59:57;2.60;73.80
33988;DHT22;37428;53.580;-1.666;2022-12-07T13:02:59;2.80;73.10
33988;DHT22;37428;53.580;-1.666;2022-12-07T13:06:17;3.00;73.00
33988;DHT22;37428;53.580;-1.666;2022-12-07T13:09:23;3.30;71.90
33988;DHT22;37428;53.580;-1.666;2022-12-07T13:12:26;3.70;71.80
33988;DHT22;37428;53.580;-1.666;2022-12-07T13:15:35;3.90;69.60
33988;DHT22;37428;53.580;-1.666;2022-12-07T13:18:38;4.10;67.70
33988;DHT22;37428;53.580;-1.666;2022-12-07T13:21:42;4.10;66.80
33988;DHT22;37428;53.580;-1.666;2022-12-07T13:24:46;4.20;67.30
33988;DHT22;37428;53.580;-1.666;2022-12-07T13:27:54;4.20;67.20
33988;DHT22;37428;53.580;-1.666;2022-12-07T13:31:09;4.10;67.40
33988;DHT22;37428;53.580;-1.666;2022-12-07T13:34:30;4.00;67.30
33988;DHT22;37428;53.580;-1.666;2022-12-07T13:37:33;3.90;67.60
33988;DHT22;37428;53.580;-1.666;2022-12-07T13:40:36;3.80;67.50
33988;DHT22;37428;53.580;-1.666;2022-12-07T13:43:42;3.70;68.00
33988;DHT22;37428;53.580;-1.666;2022-12-07T13:46:51;3.60;68.30
33988;DHT22;37428;53.580;-1.666;2022-12-07T13:49:55;3.40;68.60
33988;DHT22;37428;53.580;-1.666;2022-12-07T13:52:59;3.30;68.70
33988;DHT22;37428;53.580;-1.666;2022-12-07T13:56:02;3.30;69.70
33988;DHT22;37428;53.580;-1.666;2022-12-07T13:59:07;3.40;69.10
33988;DHT22;37428;53.580;-1.666;2022-12-07T14:02:21;3.40;69.00
33988;DHT22;37428;53.580;-1.666;2022-12-07T14:05:26;3.20;69.60
33988;DHT22;37428;53.580;-1.666;2022-12-07T14:08:30;3.20;70.50
33988;DHT22;37428;53.580;-1.666;2022-12-07T14:11:33;3.10;70.00
33988;DHT22;37428;53.580;-1.666;2022-12-07T14:14:47;3.10;70.10
33988;DHT22;37428;53.580;-1.666;2022-12-07T14:17:52;3.00;70.50
33988;DHT22;37428;53.580;-1.666;2022-12-07T14:21:03;2.90;70.30
33988;DHT22;37428;53.580;-1.666;2022-12-07T14:24:12;2.80;70.70
33988;DHT22;37428;53.580;-1.666;2022-12-07T14:27:18;2.70;71.00
33988;DHT22;37428;53.580;-1.666;2022-12-07T14:30:22;2.70;71.20
33988;DHT22;37428;53.580;-1.666;2022-12-07T14:33:26;2.60;71.90
33988;DHT22;37428;53.580;-1.666;2022-12-07T14:36:28;2.60;72.10
33988;DHT22;37428;53.580;-1.666;2022-12-07T14:39:31;2.60;72.30
33988;DHT22;37428;53.580;-1.666;2022-12-07T14:42:34;2.60;72.90
33988;DHT22;37428;53.580;-1.666;2022-12-07T14:45:37;2.50;72.50
33988;DHT22;37428;53.580;-1.666;2022-12-07T14:48:44;2.50;72.80
33988;DHT22;37428;53.580;-1.666;2022-12-07T14:51:46;2.40;72.90
33988;DHT22;37428;53.580;-1.666;2022-12-07T14:54:49;2.40;73.90
33988;DHT22;37428;53.580;-1.666;2022-12-07T14:57:52;2.30;73.10
33988;DHT22;37428;53.580;-1.666;2022-12-07T15:00:54;2.30;73.50
33988;DHT22;37428;53.580;-1.666;2022-12-07T15:03:58;2.30;73.60
33988;DHT22;37428;53.580;-1.666;2022-12-07T15:07:03;2.30;73.90
33988;DHT22;37428;53.580;-1.666;2022-12-07T15:10:09;2.20;73.80
33988;DHT22;37428;53.580;-1.666;2022-12-07T15:13:12;2.10;73.20
33988;DHT22;37428;53.580;-1.666;2022-12-07T15:16:35;2.10;73.90
33988;DHT22;37428;53.580;-1.666;2022-12-07T15:19:40;2.00;74.10
33988;DHT22;37428;53.580;-1.666;2022-12-07T15:22:42;2.00;74.40
33988;DHT22;37428;53.580;-1.666;2022-12-07T15:25:59;2.00;75.10
33988;DHT22;37428;53.580;-1.666;2022-12-07T15:29:01;2.00;74.60
33988;DHT22;37428;53.580;-1.666;2022-12-07T15:32:04;1.90;74.20
33988;DHT22;37428;53.580;-1.666;2022-12-07T15:35:22;1.90;74.70
33988;DHT22;37428;53.580;-1.666;2022-12-07T15:38:25;1.90;74.80
33988;DHT22;37428;53.580;-1.666;2022-12-07T15:41:31;1.90;75.70
33988;DHT22;37428;53.580;-1.666;2022-12-07T15:44:35;1.90;75.60
33988;DHT22;37428;53.580;-1.666;2022-12-07T15:47:55;1.90;76.20
33988;DHT22;37428;53.580;-1.666;2022-12-07T15:51:08;1.80;75.80
33988;DHT22;37428;53.580;-1.666;2022-12-07T15:54:13;1.70;75.90
33988;DHT22;37428;53.580;-1.666;2022-12-07T15:57:18;1.70;76.90
33988;DHT22;37428;53.580;-1.666;2022-12-07T16:00:27;1.80;76.60
33988;DHT22;37428;53.580;-1.666;2022-12-07T16:03:31;1.80;76.80
33988;DHT22;37428;53.580;-1.666;2022-12-07T16:06:38;1.80;76.30
33988;DHT22;37428;53.580;-1.666;2022-12-07T16:09:40;1.80;77.10
33988;DHT22;37428;53.580;-1.666;2022-12-07T16:12:42;1.70;76.90
33988;DHT22;37428;53.580;-1.666;2022-12-07T16:15:45;1.60;76.10
33988;DHT22;37428;53.580;-1.666;2022-12-07T16:18:50;1.60;76.60
33988;DHT22;37428;53.580;-1.666;2022-12-07T16:21:54;1.60;76.70
33988;DHT22;37428;53.580;-1.666;2022-12-07T16:24:57;1.50;76.40
33988;DHT22;37428;53.580;-1.666;2022-12-07T16:27:59;1.50;76.30
33988;DHT22;37428;53.580;-1.666;2022-12-07T16:31:03;1.40;76.70
33988;DHT22;37428;53.580;-1.666;2022-12-07T16:34:07;1.30;77.00
33988;DHT22;37428;53.580;-1.666;2022-12-07T16:37:12;1.30;77.40
33988;DHT22;37428;53.580;-1.666;2022-12-07T16:40:15;1.30;77.00
33988;DHT22;37428;53.580;-1.666;2022-12-07T16:43:17;1.20;76.60
33988;DHT22;37428;53.580;-1.666;2022-12-07T16:46:19;1.20;77.60
33988;DHT22;37428;53.580;-1.666;2022-12-07T16:49:21;1.20;77.10
33988;DHT22;37428;53.580;-1.666;2022-12-07T16:52:26;1.20;77.70
33988;DHT22;37428;53.580;-1.666;2022-12-07T16:55:36;1.20;77.20
33988;DHT22;37428;53.580;-1.666;2022-12-07T16:58:38;1.20;77.40
33988;DHT22;37428;53.580;-1.666;2022-12-07T17:01:41;1.20;77.90
33988;DHT22;37428;53.580;-1.666;2022-12-07T17:04:43;1.20;78.40
33988;DHT22;37428;53.580;-1.666;2022-12-07T17:07:47;1.20;77.80
33988;DHT22;37428;53.580;-1.666;2022-12-07T17:10:49;1.10;77.70
33988;DHT22;37428;53.580;-1.666;2022-12-07T17:13:51;1.10;77.80
33988;DHT22;37428;53.580;-1.666;2022-12-07T17:17:11;1.00;77.40
33988;DHT22;37428;53.580;-1.666;2022-12-07T17:20:13;1.00;77.70
33988;DHT22;37428;53.580;-1.666;2022-12-07T17:23:19;0.90;78.10
33988;DHT22;37428;53.580;-1.666;2022-12-07T17:26:23;0.90;78.20
33988;DHT22;37428;53.580;-1.666;2022-12-07T17:29:26;0.90;78.40
33988;DHT22;37428;53.580;-1.666;2022-12-07T17:32:28;0.80;77.80
33988;DHT22;37428;53.580;-1.666;2022-12-07T17:35:31;0.80;77.60
33988;DHT22;37428;53.580;-1.666;2022-12-07T17:38:35;0.70;77.70
33988;DHT22;37428;53.580;-1.666;2022-12-07T17:41:38;0.70;77.80
33988;DHT22;37428;53.580;-1.666;2022-12-07T17:44:58;0.60;77.70
33988;DHT22;37428;53.580;-1.666;2022-12-07T17:48:04;0.60;78.00
33988;DHT22;37428;53.580;-1.666;2022-12-07T17:51:06;0.60;78.10
33988;DHT22;37428;53.580;-1.666;2022-12-07T17:54:32;0.60;78.00
33988;DHT22;37428;53.580;-1.666;2022-12-07T17:57:44;0.60;78.20
33988;DHT22;37428;53.580;-1.666;2022-12-07T18:00:54;0.60;78.30
33988;DHT22;37428;53.580;-1.666;2022-12-07T18:04:19;0.60;78.10
33988;DHT22;37428;53.580;-1.666;2022-12-07T18:07:35;0.60;78.00
33988;DHT22;37428;53.580;-1.666;2022-12-07T18:10:47;0.60;78.20
33988;DHT22;37428;53.580;-1.666;2022-12-07T18:13:55;0.60;78.50
33988;DHT22;37428;53.580;-1.666;2022-12-07T18:17:00;0.60;78.20
33988;DHT22;37428;53.580;-1.666;2022-12-07T18:20:10;0.60;78.00
33988;DHT22;37428;53.580;-1.666;2022-12-07T18:26:48;0.70;78.30
33988;DHT22;37428;53.580;-1.666;2022-12-07T18:29:53;0.50;77.80
33988;DHT22;37428;53.580;-1.666;2022-12-07T18:32:55;0.50;77.80
33988;DHT22;37428;53.580;-1.666;2022-12-07T18:35:59;0.40;77.60
33988;DHT22;37428;53.580;-1.666;2022-12-07T18:39:06;0.50;78.40
33988;DHT22;37428;53.580;-1.666;2022-12-07T18:42:10;0.50;78.40
33988;DHT22;37428;53.580;-1.666;2022-12-07T18:45:12;0.40;78.00
33988;DHT22;37428;53.580;-1.666;2022-12-07T18:48:15;0.40;77.80
33988;DHT22;37428;53.580;-1.666;2022-12-07T18:51:24;0.40;77.70
33988;DHT22;37428;53.580;-1.666;2022-12-07T18:54:28;0.40;78.00
33988;DHT22;37428;53.580;-1.666;2022-12-07T18:57:32;0.40;78.00
33988;DHT22;37428;53.580;-1.666;2022-12-07T19:00:35;0.40;77.80
33988;DHT22;37428;53.580;-1.666;2022-12-07T19:03:40;0.40;77.60
33988;DHT22;37428;53.580;-1.666;2022-12-07T19:06:46;0.40;77.70
33988;DHT22;37428;53.580;-1.666;2022-12-07T19:09:49;0.40;77.40
33988;DHT22;37428;53.580;-1.666;2022-12-07T19:12:55;0.30;77.40
33988;DHT22;37428;53.580;-1.666;2022-12-07T19:15:57;0.40;77.70
33988;DHT22;37428;53.580;-1.666;2022-12-07T19:19:00;0.40;77.60
33988;DHT22;37428;53.580;-1.666;2022-12-07T19:22:03;0.40;77.50
33988;DHT22;37428;53.580;-1.666;2022-12-07T19:25:07;0.40;77.40
33988;DHT22;37428;53.580;-1.666;2022-12-07T19:28:16;0.40;77.50
33988;DHT22;37428;53.580;-1.666;2022-12-07T19:31:19;0.40;77.70
33988;DHT22;37428;53.580;-1.666;2022-12-07T19:34:22;0.40;77.60
33988;DHT22;37428;53.580;-1.666;2022-12-07T19:37:24;0.50;78.00
33988;DHT22;37428;53.580;-1.666;2022-12-07T19:40:29;0.40;77.40
33988;DHT22;37428;53.580;-1.666;2022-12-07T19:43:36;0.40;77.80
33988;DHT22;37428;53.580;-1.666;2022-12-07T19:46:43;0.40;77.30
33988;DHT22;37428;53.580;-1.666;2022-12-07T19:49:46;0.30;77.00
33988;DHT22;37428;53.580;-1.666;2022-12-07T19:52:48;0.30;77.60
33988;DHT22;37428;53.580;-1.666;2022-12-07T19:55:51;0.30;77.60
33988;DHT22;37428;53.580;-1.666;2022-12-07T19:58:55;0.30;77.50
33988;DHT22;37428;53.580;-1.666;2022-12-07T20:02:02;0.20;77.50
33988;DHT22;37428;53.580;-1.666;2022-12-07T20:05:05;0.20;77.50
33988;DHT22;37428;53.580;-1.666;2022-12-07T20:08:13;0.20;77.70
33988;DHT22;37428;53.580;-1.666;2022-12-07T20:11:18;0.10;77.70
33988;DHT22;37428;53.580;-1.666;2022-12-07T20:14:39;0.10;78.10
33988;DHT22;37428;53.580;-1.666;2022-12-07T20:17:42;0.00;78.20
33988;DHT22;37428;53.580;-1.666;2022-12-07T20:20:52;0.10;78.50
33988;DHT22;37428;53.580;-1.666;2022-12-07T20:24:02;0.10;78.20
33988;DHT22;37428;53.580;-1.666;2022-12-07T20:27:05;0.10;77.90
33988;DHT22;37428;53.580;-1.666;2022-12-07T20:30:12;0.10;77.50
33988;DHT22;37428;53.580;-1.666;2022-12-07T20:33:15;0.20;78.10